createdAt,value
2022-10-29T00:02:02.015Z,8.93
2022-10-29T00:04:28.552Z,8.38
2022-10-29T00:06:55.000Z,5.65
2022-10-29T00:09:21.464Z,11.00
2022-10-29T00:11:47.940Z,5.60
2022-10-29T00:14:14.374Z,10.20
2022-10-29T00:16:40.802Z,9.50
2022-10-29T00:19:07.342Z,5.95
2022-10-29T00:21:34.525Z,8.68
2022-10-29T00:24:01.031Z,9.10
2022-10-29T00:26:29.539Z,10.38
2022-10-29T00:28:56.678Z,10.32
2022-10-29T00:31:24.366Z,9.70
2022-10-29T00:33:53.292Z,8.85
2022-10-29T00:36:22.387Z,10.20
2022-10-29T00:38:48.937Z,8.13
2022-10-29T00:41:18.140Z,10.10
2022-10-29T00:43:48.777Z,7.45
2022-10-29T00:46:24.478Z,6.88
2022-10-29T00:48:54.646Z,9.25
2022-10-29T00:51:21.896Z,8.30
2022-10-29T00:53:54.776Z,7.45
2022-10-29T00:56:23.965Z,6.70
2022-10-29T00:58:50.435Z,12.13
2022-10-29T01:01:17.192Z,10.30
2022-10-29T01:03:43.759Z,7.97
2022-10-29T01:06:10.295Z,11.00
2022-10-29T01:08:36.753Z,9.55
2022-10-29T01:11:44.189Z,10.15
2022-10-29T01:14:41.621Z,10.95
2022-10-29T01:17:21.508Z,7.20
2022-10-29T01:20:16.225Z,9.48
2022-10-29T01:22:58.340Z,9.73
2022-10-29T01:25:46.621Z,13.05
2022-10-29T01:28:25.891Z,12.10
2022-10-29T01:31:23.415Z,12.02
2022-10-29T01:34:17.357Z,9.50
2022-10-29T01:36:53.497Z,11.35
2022-10-29T01:39:44.938Z,10.30
2022-10-29T01:42:27.318Z,8.73
2022-10-29T01:45:11.019Z,13.18
2022-10-29T01:47:44.443Z,12.32
2022-10-29T01:50:15.497Z,12.23
2022-10-29T01:52:43.523Z,12.70
2022-10-29T01:55:09.947Z,10.27
2022-10-29T01:57:38.699Z,10.38
2022-10-29T02:00:09.376Z,12.07
2022-10-29T02:02:53.645Z,6.90
2022-10-29T02:05:33.176Z,10.95
2022-10-29T02:08:21.167Z,10.88
2022-10-29T02:11:08.470Z,12.80
2022-10-29T02:13:41.614Z,11.90
2022-10-29T02:16:10.095Z,6.45
2022-10-29T02:18:45.452Z,10.13
2022-10-29T02:21:16.080Z,8.10
2022-10-29T02:23:42.615Z,10.63
2022-10-29T02:26:09.151Z,10.38
2022-10-29T02:28:35.619Z,13.50
2022-10-29T02:31:02.082Z,9.93
2022-10-29T02:33:28.599Z,12.25
2022-10-29T02:35:55.044Z,8.02
2022-10-29T02:38:21.514Z,7.80
2022-10-29T02:40:47.964Z,12.10
2022-10-29T02:43:14.542Z,13.18
2022-10-29T02:45:41.029Z,5.85
2022-10-29T02:48:07.481Z,12.45
2022-10-29T02:50:33.926Z,8.27
2022-10-29T02:53:00.580Z,11.88
2022-10-29T02:55:27.028Z,9.77
2022-10-29T02:57:53.816Z,12.90
2022-10-29T03:00:20.498Z,11.88
2022-10-29T03:02:49.884Z,13.20
2022-10-29T03:05:16.347Z,12.23
2022-10-29T03:07:42.780Z,7.32
2022-10-29T03:10:09.639Z,8.63
2022-10-29T03:12:36.089Z,7.10
2022-10-29T03:15:02.650Z,10.70
2022-10-29T03:17:29.110Z,12.05
2022-10-29T03:19:55.551Z,12.15
2022-10-29T03:22:21.996Z,10.82
2022-10-29T03:24:48.449Z,10.90
2022-10-29T03:27:14.896Z,11.20
2022-10-29T03:29:41.400Z,11.77
2022-10-29T03:32:07.834Z,10.80
2022-10-29T03:34:34.316Z,12.13
2022-10-29T03:37:00.747Z,5.40
2022-10-29T03:39:27.192Z,5.57
2022-10-29T03:41:53.623Z,6.18
2022-10-29T03:44:20.059Z,7.20
2022-10-29T03:46:46.499Z,10.07
2022-10-29T03:49:13.000Z,6.22
2022-10-29T03:51:39.833Z,11.80
2022-10-29T03:54:06.284Z,7.40
2022-10-29T03:56:32.707Z,8.57
2022-10-29T03:58:59.281Z,11.73
2022-10-29T04:01:25.909Z,11.35
2022-10-29T04:03:52.473Z,11.73
2022-10-29T04:06:18.937Z,6.38
2022-10-29T04:08:45.468Z,9.82
2022-10-29T04:11:13.483Z,11.85
2022-10-29T04:13:40.323Z,9.07
2022-10-29T04:16:07.169Z,11.65
2022-10-29T04:18:33.640Z,10.55
2022-10-29T04:29:22.538Z,10.43
2022-10-29T04:31:49.297Z,11.90
2022-10-29T04:34:15.834Z,12.00
2022-10-29T04:36:42.284Z,9.90
2022-10-29T04:39:08.748Z,11.98
2022-10-29T04:41:35.236Z,6.57
2022-10-29T04:44:02.329Z,11.50
2022-10-29T04:46:28.885Z,13.57
2022-10-29T04:48:55.389Z,11.63
2022-10-29T04:51:24.652Z,7.03
2022-10-29T04:53:51.126Z,12.80
2022-10-29T04:56:17.995Z,9.75
2022-10-29T04:58:44.685Z,10.15
2022-10-29T05:01:11.350Z,10.00
2022-10-29T05:03:38.088Z,13.68
2022-10-29T05:06:05.810Z,10.98
2022-10-29T05:08:32.942Z,7.32
2022-10-29T05:11:03.397Z,12.88
2022-10-29T05:13:30.204Z,12.05
2022-10-29T05:15:57.006Z,12.55
2022-10-29T05:18:23.467Z,13.25
2022-10-29T05:20:53.800Z,12.90
2022-10-29T05:23:26.442Z,13.95
2022-10-29T05:25:55.730Z,8.25
2022-10-29T05:28:23.730Z,9.38
2022-10-29T05:30:52.029Z,10.25
2022-10-29T05:33:21.193Z,8.98
2022-10-29T05:35:48.142Z,12.63
2022-10-29T05:38:15.352Z,14.05
2022-10-29T05:40:44.933Z,12.63
2022-10-29T05:43:13.457Z,13.60
2022-10-29T05:45:40.271Z,15.60
2022-10-29T05:48:07.572Z,13.65
2022-10-29T05:50:34.690Z,11.95
2022-10-29T05:53:04.160Z,13.38
2022-10-29T05:55:32.959Z,13.38
2022-10-29T05:58:02.109Z,13.57
2022-10-29T06:00:30.889Z,10.10
2022-10-29T06:02:58.056Z,12.75
2022-10-29T06:05:24.809Z,13.23
2022-10-29T06:07:56.158Z,13.13
2022-10-29T06:10:23.992Z,11.15
2022-10-29T06:12:50.864Z,7.93
2022-10-29T06:15:17.799Z,13.88
2022-10-29T06:17:45.255Z,8.63
2022-10-29T06:20:13.753Z,11.60
2022-10-29T06:22:40.202Z,11.02
2022-10-29T06:25:07.250Z,14.52
2022-10-29T06:27:33.720Z,9.50
2022-10-29T06:30:00.174Z,14.32
2022-10-29T06:32:26.867Z,13.40
2022-10-29T06:34:53.309Z,13.88
2022-10-29T06:37:19.792Z,15.60
2022-10-29T06:39:46.216Z,13.63
2022-10-29T06:42:12.667Z,12.85
2022-10-29T06:44:39.135Z,12.55
2022-10-29T06:47:05.823Z,12.10
2022-10-29T06:49:32.353Z,11.27
2022-10-29T06:51:58.812Z,14.55
2022-10-29T06:54:25.244Z,8.32
2022-10-29T06:56:51.721Z,15.40
2022-10-29T06:59:18.169Z,15.65
2022-10-29T07:01:46.519Z,15.38
2022-10-29T07:04:13.105Z,14.65
2022-10-29T07:06:39.557Z,12.00
2022-10-29T07:09:06.074Z,14.20
2022-10-29T07:11:32.533Z,14.15
2022-10-29T07:13:59.009Z,14.63
2022-10-29T07:16:25.501Z,14.77
2022-10-29T07:18:53.720Z,14.80
2022-10-29T07:21:20.229Z,11.70
2022-10-29T07:23:46.680Z,14.90
2022-10-29T07:26:13.146Z,16.80
2022-10-29T07:28:39.585Z,17.17
2022-10-29T07:31:07.669Z,15.73
2022-10-29T07:33:34.212Z,16.85
2022-10-29T07:36:00.746Z,17.60
2022-10-29T07:38:27.529Z,16.08
2022-10-29T07:40:54.542Z,16.20
2022-10-29T07:43:21.651Z,16.65
2022-10-29T07:45:49.997Z,15.05
2022-10-29T07:48:16.831Z,11.80
2022-10-29T07:50:43.335Z,16.00
2022-10-29T07:53:10.267Z,16.05
2022-10-29T07:55:36.804Z,15.32
2022-10-29T07:58:05.834Z,15.10
2022-10-29T08:00:35.393Z,13.23
2022-10-29T08:03:02.018Z,16.48
2022-10-29T08:05:29.903Z,15.68
2022-10-29T08:07:57.402Z,15.48
2022-10-29T08:10:25.267Z,14.98
2022-10-29T08:12:57.349Z,15.82
2022-10-29T08:15:25.402Z,13.25
2022-10-29T08:17:52.340Z,14.90
2022-10-29T08:20:19.513Z,14.85
2022-10-29T08:22:46.307Z,14.77
2022-10-29T08:25:13.438Z,16.30
2022-10-29T08:27:40.148Z,15.63
2022-10-29T08:30:08.543Z,15.30
2022-10-29T08:32:35.577Z,16.05
2022-10-29T08:35:03.223Z,16.15
2022-10-29T08:37:29.800Z,16.60
2022-10-29T08:39:56.263Z,15.55
2022-10-29T08:42:47.008Z,15.18
2022-10-29T08:45:25.252Z,19.40
2022-10-29T08:48:46.671Z,16.80
2022-10-29T08:51:19.216Z,16.88
2022-10-29T08:54:25.023Z,18.40
2022-10-29T08:56:50.240Z,14.82
2022-10-29T08:59:20.395Z,14.90
2022-10-29T09:01:47.618Z,15.25
2022-10-29T09:04:17.064Z,14.57
2022-10-29T09:07:06.673Z,14.85
2022-10-29T09:09:46.673Z,15.27
2022-10-29T09:12:18.779Z,15.63
2022-10-29T09:15:14.512Z,14.82
2022-10-29T09:17:43.964Z,12.98
2022-10-29T09:20:30.288Z,15.65
2022-10-29T09:23:24.958Z,15.50
2022-10-29T09:26:10.770Z,14.55
2022-10-29T09:28:53.613Z,14.45
2022-10-29T09:31:42.774Z,15.13
2022-10-29T09:34:18.019Z,15.32
2022-10-29T09:36:47.538Z,13.90
2022-10-29T09:39:34.227Z,14.68
2022-10-29T09:42:08.343Z,13.20
2022-10-29T09:44:46.312Z,13.80
2022-10-29T09:47:36.187Z,14.00
2022-10-29T09:50:33.650Z,13.07
2022-10-29T09:53:00.866Z,13.10
2022-10-29T09:55:39.732Z,14.48
2022-10-29T09:58:07.017Z,13.27
2022-10-29T10:00:34.504Z,13.25
2022-10-29T10:03:16.148Z,13.32
2022-10-29T10:05:59.237Z,13.45
2022-10-29T10:08:26.011Z,12.88
2022-10-29T10:10:59.772Z,12.32
2022-10-29T10:13:38.446Z,13.98
2022-10-29T10:16:06.497Z,12.60
2022-10-29T10:18:33.069Z,12.52
2022-10-29T10:21:04.499Z,13.20
2022-10-29T10:23:40.736Z,13.38
2022-10-29T10:26:27.524Z,12.25
2022-10-29T10:29:13.296Z,12.77
2022-10-29T10:31:41.339Z,13.48
2022-10-29T10:34:15.379Z,12.15
2022-10-29T10:37:07.910Z,12.05
2022-10-29T10:39:39.566Z,12.63
2022-10-29T10:42:31.206Z,11.73
2022-10-29T10:45:12.135Z,12.40
2022-10-29T10:47:43.332Z,11.68
2022-10-29T10:52:45.704Z,11.10
2022-10-29T10:55:24.075Z,9.95
2022-10-29T10:57:58.264Z,10.68
2022-10-29T11:00:40.522Z,10.20
2022-10-29T11:03:20.155Z,11.57
2022-10-29T11:05:56.173Z,10.82
2022-10-29T11:08:31.370Z,10.98
2022-10-29T11:11:06.928Z,9.25
2022-10-29T11:13:34.348Z,9.85
2022-10-29T11:16:18.970Z,10.05
2022-10-29T11:19:24.692Z,10.38
2022-10-29T11:22:08.310Z,10.07
2022-10-29T11:24:57.339Z,10.07
2022-10-29T11:27:34.168Z,9.60
2022-10-29T11:30:12.142Z,9.15
2022-10-29T11:33:01.491Z,8.95
2022-10-29T11:35:40.993Z,9.10
2022-10-29T11:38:14.589Z,9.18
2022-10-29T11:40:56.195Z,8.68
2022-10-29T11:43:22.681Z,10.68
2022-10-29T11:45:56.014Z,8.60
2022-10-29T11:48:44.876Z,10.00
2022-10-29T11:51:48.808Z,10.50
2022-10-29T11:54:43.298Z,8.77
2022-10-29T11:57:55.058Z,8.65
2022-10-29T12:00:24.459Z,9.02
2022-10-29T12:03:09.165Z,8.93
2022-10-29T12:06:04.522Z,8.05
2022-10-29T12:08:40.504Z,8.27
2022-10-29T12:11:31.518Z,8.30
2022-10-29T12:14:20.649Z,8.35
2022-10-29T12:17:01.873Z,9.40
2022-10-29T12:23:25.124Z,9.18
2022-10-29T12:26:39.119Z,8.55
2022-10-29T12:29:19.714Z,9.50
2022-10-29T12:32:07.458Z,8.93
2022-10-29T12:34:49.844Z,8.52
2022-10-29T12:37:42.454Z,8.57
2022-10-29T12:40:18.145Z,9.45
2022-10-29T12:42:47.336Z,9.65
2022-10-29T12:45:25.879Z,8.38
2022-10-29T12:47:59.677Z,8.77
2022-10-29T12:50:49.924Z,8.50
2022-10-29T12:53:32.075Z,10.02
2022-10-29T12:55:58.761Z,9.30
2022-10-29T12:58:48.698Z,9.27
2022-10-29T13:01:50.058Z,9.35
2022-10-29T13:04:32.160Z,8.27
2022-10-29T13:07:01.449Z,8.50
2022-10-29T13:09:35.060Z,8.70
2022-10-29T13:12:12.686Z,8.85
2022-10-29T13:14:55.046Z,7.30
2022-10-29T13:17:36.561Z,9.57
2022-10-29T13:20:21.482Z,8.40
2022-10-29T13:22:54.124Z,9.45
2022-10-29T13:25:42.308Z,10.10
2022-10-29T13:28:08.702Z,10.25
2022-10-29T13:30:43.770Z,9.38
2022-10-29T13:33:30.432Z,9.18
2022-10-29T13:36:04.392Z,8.90
2022-10-29T13:38:57.919Z,8.82
2022-10-29T13:41:40.211Z,8.52
2022-10-29T13:44:19.417Z,9.98
2022-10-29T13:47:05.161Z,8.88
2022-10-29T13:49:37.631Z,9.07
2022-10-29T13:52:06.568Z,9.15
2022-10-29T13:54:44.027Z,8.43
2022-10-29T13:57:13.472Z,10.57
2022-10-29T13:59:48.782Z,9.38
2022-10-29T14:02:42.154Z,8.77
2022-10-29T14:05:12.652Z,8.95
2022-10-29T14:07:51.879Z,8.60
2022-10-29T14:10:24.144Z,10.20
2022-10-29T14:12:55.750Z,9.38
2022-10-29T14:15:22.681Z,8.90
2022-10-29T14:17:49.134Z,8.65
2022-10-29T14:20:21.812Z,9.68
2022-10-29T14:22:48.456Z,8.95
2022-10-29T14:25:36.147Z,9.85
2022-10-29T14:28:24.259Z,8.82
2022-10-29T14:31:02.042Z,9.40
2022-10-29T14:33:31.727Z,9.32
2022-10-29T14:36:11.284Z,9.10
2022-10-29T14:38:44.123Z,8.30
2022-10-29T14:41:11.587Z,9.95
2022-10-29T14:43:39.427Z,8.98
2022-10-29T14:46:12.891Z,11.02
2022-10-29T14:48:46.700Z,8.93
2022-10-29T14:51:20.097Z,11.70
2022-10-29T14:53:57.481Z,8.77
2022-10-29T14:56:32.720Z,10.43
2022-10-29T14:59:01.489Z,12.00
2022-10-29T15:01:28.208Z,11.27
2022-10-29T15:04:00.512Z,10.13
2022-10-29T15:06:29.175Z,8.90
2022-10-29T15:09:01.303Z,10.88
2022-10-29T15:11:39.834Z,10.40
2022-10-29T15:14:30.870Z,9.80
2022-10-29T15:16:58.135Z,10.00
2022-10-29T15:19:24.832Z,10.02
2022-10-29T15:22:11.365Z,11.32
2022-10-29T15:24:38.594Z,13.73
2022-10-29T15:27:06.433Z,10.88
2022-10-29T15:29:43.051Z,14.27
2022-10-29T15:32:15.016Z,7.97
2022-10-29T15:34:48.402Z,9.57
2022-10-29T15:37:33.187Z,8.65
2022-10-29T15:40:07.031Z,8.38
2022-10-29T15:42:35.976Z,8.25
2022-10-29T15:45:15.286Z,8.07
2022-10-29T15:47:42.754Z,8.60
2022-10-29T15:50:15.495Z,10.65
2022-10-29T15:53:09.905Z,8.05
2022-10-29T15:55:38.468Z,7.72
2022-10-29T15:58:10.908Z,11.80
2022-10-29T16:00:37.774Z,11.00
2022-10-29T16:03:14.796Z,8.70
2022-10-29T16:05:42.923Z,17.20
2022-10-29T16:08:23.573Z,10.90
2022-10-29T16:10:50.507Z,10.50
2022-10-29T16:13:18.053Z,8.85
2022-10-29T16:15:44.557Z,14.85
2022-10-29T16:18:11.017Z,14.50
2022-10-29T16:20:37.578Z,15.38
2022-10-29T16:23:04.191Z,11.63
2022-10-29T16:25:30.671Z,13.65
2022-10-29T16:27:57.431Z,16.08
2022-10-29T16:30:24.361Z,15.60
2022-10-29T16:32:52.386Z,16.55
2022-10-29T16:35:24.338Z,15.95
2022-10-29T16:37:52.078Z,14.30
2022-10-29T16:40:20.833Z,14.40
2022-10-29T16:42:48.088Z,12.43
2022-10-29T16:45:22.527Z,14.98
2022-10-29T16:47:51.861Z,16.00
2022-10-29T16:50:21.050Z,16.73
2022-10-29T16:52:48.016Z,17.25
2022-10-29T16:55:14.781Z,17.08
2022-10-29T16:57:41.301Z,12.57
2022-10-29T17:00:08.464Z,16.45
2022-10-29T17:02:35.007Z,14.05
2022-10-29T17:05:01.538Z,17.13
2022-10-29T17:07:28.100Z,16.98
2022-10-29T17:09:54.548Z,15.93
2022-10-29T17:12:21.321Z,17.38
2022-10-29T17:14:47.823Z,12.45
2022-10-29T17:17:14.401Z,17.02
2022-10-29T17:19:40.888Z,14.30
2022-10-29T17:22:10.484Z,16.50
2022-10-29T17:24:37.325Z,15.82
2022-10-29T17:27:03.957Z,14.93
2022-10-29T17:29:35.989Z,15.27
2022-10-29T17:34:35.743Z,16.63
2022-10-29T17:37:02.254Z,16.85
2022-10-29T17:39:28.795Z,17.10
2022-10-29T17:41:55.439Z,17.33
2022-10-29T17:44:21.930Z,15.95
2022-10-29T17:46:48.936Z,18.85
2022-10-29T17:49:15.559Z,16.30
2022-10-29T17:51:42.059Z,16.92
2022-10-29T17:54:08.908Z,19.08
2022-10-29T17:56:35.345Z,14.02
2022-10-29T17:59:01.811Z,21.60
2022-10-29T18:01:28.493Z,17.17
2022-10-29T18:03:55.025Z,13.93
2022-10-29T18:06:21.534Z,15.85
2022-10-29T18:08:47.994Z,18.23
2022-10-29T18:11:18.588Z,15.00
2022-10-29T18:13:46.393Z,19.92
2022-10-29T18:16:20.778Z,17.70
2022-10-29T18:19:01.685Z,21.30
2022-10-29T18:21:30.506Z,21.63
2022-10-29T18:23:57.080Z,21.88
2022-10-29T18:26:31.821Z,19.00
2022-10-29T18:29:03.672Z,14.80
2022-10-29T18:31:31.280Z,19.70
2022-10-29T18:33:59.731Z,22.15
2022-10-29T18:36:26.407Z,17.42
2022-10-29T18:38:54.563Z,21.88
2022-10-29T18:41:22.028Z,20.42
2022-10-29T18:43:49.042Z,16.45
2022-10-29T18:46:16.494Z,15.10
2022-10-29T18:48:47.910Z,18.48
2022-10-29T18:51:25.707Z,18.95
2022-10-29T18:53:54.138Z,18.67
2022-10-29T18:56:22.389Z,18.60
2022-10-29T18:58:49.971Z,19.27
2022-10-29T19:01:19.523Z,19.55
2022-10-29T19:03:57.246Z,19.25
2022-10-29T19:06:25.916Z,20.15
2022-10-29T19:08:52.601Z,17.88
2022-10-29T19:11:22.125Z,18.45
2022-10-29T19:14:53.637Z,19.30
2022-10-29T19:17:20.116Z,18.33
2022-10-29T19:19:46.580Z,16.98
2022-10-29T19:22:13.078Z,17.15
2022-10-29T19:24:39.592Z,23.10
2022-10-29T19:27:06.158Z,20.33
2022-10-29T19:29:32.602Z,18.58
2022-10-29T19:31:59.238Z,20.15
2022-10-29T19:34:25.827Z,22.70
2022-10-29T19:36:52.580Z,26.23
2022-10-29T19:41:45.796Z,23.48
2022-10-29T19:44:12.304Z,23.75
2022-10-29T19:46:38.744Z,23.85
2022-10-29T19:49:08.438Z,20.52
2022-10-29T19:51:34.996Z,22.17
2022-10-29T19:54:03.955Z,18.50
2022-10-29T19:56:30.498Z,23.60
2022-10-29T19:58:56.963Z,19.05
2022-10-29T20:01:23.589Z,21.58
2022-10-29T20:03:50.264Z,20.40
2022-10-29T20:06:17.745Z,19.95
2022-10-29T20:08:44.302Z,24.27
2022-10-29T20:11:10.799Z,25.98
2022-10-29T20:13:37.925Z,21.38
2022-10-29T20:16:13.520Z,19.35
2022-10-29T20:18:40.058Z,18.77
2022-10-29T20:21:07.067Z,20.13
2022-10-29T20:23:33.713Z,18.95
2022-10-29T20:26:00.199Z,19.35
2022-10-29T20:28:27.107Z,23.40
2022-10-29T20:31:12.027Z,18.95
2022-10-29T20:33:38.841Z,18.15
2022-10-29T20:36:05.792Z,15.73
2022-10-29T20:38:32.363Z,18.80
2022-10-29T20:40:58.836Z,19.63
2022-10-29T20:43:25.654Z,16.52
2022-10-29T20:45:52.228Z,18.77
2022-10-29T20:48:18.857Z,18.85
2022-10-29T20:50:51.905Z,17.88
2022-10-29T20:55:44.986Z,16.73
2022-10-29T20:58:11.469Z,18.42
2022-10-29T21:00:38.472Z,19.10
2022-10-29T21:03:04.963Z,18.35
2022-10-29T21:05:31.418Z,21.05
2022-10-29T21:07:58.717Z,18.40
2022-10-29T21:10:25.510Z,23.30
2022-10-29T21:12:51.987Z,28.52
2022-10-29T21:15:18.470Z,23.80
2022-10-29T21:17:44.947Z,25.20
2022-10-29T21:20:11.455Z,26.00
2022-10-29T21:22:37.937Z,31.88
2022-10-29T21:25:04.706Z,33.50
2022-10-29T21:27:31.195Z,24.63
2022-10-29T21:29:57.702Z,17.98
2022-10-29T21:32:24.191Z,31.95
2022-10-29T21:34:50.806Z,26.90
2022-10-29T21:37:17.325Z,29.08
2022-10-29T21:39:43.827Z,25.50
2022-10-29T21:42:10.320Z,25.65
2022-10-29T21:44:36.836Z,20.52
2022-10-29T21:47:03.447Z,24.23
2022-10-29T21:49:29.929Z,25.70
2022-10-29T21:51:56.505Z,25.83
2022-10-29T21:54:24.433Z,24.48
2022-10-29T21:56:53.894Z,23.90
2022-10-29T21:59:20.392Z,23.52
2022-10-29T22:01:46.959Z,19.40
2022-10-29T22:04:13.533Z,23.10
2022-10-29T22:06:40.164Z,19.55
2022-10-29T22:09:06.695Z,20.50
2022-10-29T22:11:33.167Z,19.23
2022-10-29T22:13:59.940Z,20.50
2022-10-29T22:16:26.491Z,20.35
2022-10-29T22:18:53.780Z,18.02
2022-10-29T22:21:22.813Z,20.40
2022-10-29T22:23:52.275Z,21.10
2022-10-29T22:26:22.006Z,19.15
2022-10-29T22:28:48.524Z,18.55
2022-10-29T22:31:18.001Z,16.98
2022-10-29T22:33:45.473Z,17.98
2022-10-29T22:36:14.981Z,19.10
2022-10-29T22:38:42.433Z,18.15
2022-10-29T22:41:11.800Z,17.90
2022-10-29T22:43:38.795Z,19.50
2022-10-29T22:46:07.291Z,15.90
2022-10-29T22:48:35.106Z,17.80
2022-10-29T22:51:04.946Z,19.05
2022-10-29T22:53:32.131Z,16.55
2022-10-29T22:55:59.597Z,17.00
2022-10-29T22:58:26.212Z,17.15
2022-10-29T23:01:05.960Z,19.20
2022-10-29T23:03:33.784Z,14.35
2022-10-29T23:06:02.671Z,15.57
2022-10-29T23:08:30.232Z,17.83
2022-10-29T23:10:57.067Z,18.10
2022-10-29T23:13:23.616Z,16.33
2022-10-29T23:15:51.888Z,16.85
2022-10-29T23:18:18.999Z,15.90
2022-10-29T23:20:45.990Z,17.58
2022-10-29T23:23:13.684Z,18.00
2022-10-29T23:25:41.607Z,18.67
2022-10-29T23:28:08.874Z,15.10
2022-10-29T23:30:35.737Z,17.67
2022-10-29T23:33:02.280Z,16.95
2022-10-29T23:35:29.036Z,18.45
2022-10-29T23:37:55.764Z,18.85
2022-10-29T23:40:22.505Z,18.27
2022-10-29T23:42:49.010Z,17.13
2022-10-29T23:45:16.927Z,15.15
2022-10-29T23:47:43.392Z,16.98
2022-10-29T23:50:10.467Z,18.42
2022-10-29T23:52:37.158Z,14.63
2022-10-29T23:55:03.776Z,16.05
2022-10-29T23:57:30.292Z,16.98
2022-10-29T23:59:56.781Z,16.67
